createdAt,value
2019-03-12T00:00:10.988Z,100749.89
2019-03-12T00:02:39.409Z,100751.19
2019-03-12T00:05:09.029Z,100751.20
2019-03-12T00:07:37.529Z,100745.47
2019-03-12T00:10:08.623Z,100744.28
2019-03-12T00:12:37.047Z,100749.39
2019-03-12T00:15:06.974Z,100752.03
2019-03-12T00:17:35.462Z,100755.47
2019-03-12T00:20:05.624Z,100755.59
2019-03-12T00:22:34.049Z,100757.04
2019-03-12T00:25:02.431Z,100761.18
2019-03-12T00:27:30.846Z,100767.48
2019-03-12T00:29:59.253Z,100774.77
2019-03-12T00:32:27.683Z,100778.82
2019-03-12T00:34:56.081Z,100776.81
2019-03-12T00:37:24.491Z,100780.59
2019-03-12T00:39:52.892Z,100785.48
2019-03-12T00:42:21.361Z,100784.67
2019-03-12T00:44:49.742Z,100785.50
2019-03-12T00:47:18.157Z,100784.67
2019-03-12T00:49:46.562Z,100783.11
2019-03-12T00:52:14.949Z,100794.80
2019-03-12T00:54:43.437Z,100791.93
2019-03-12T00:57:11.915Z,100788.60
2019-03-12T00:59:40.317Z,100793.73
2019-03-12T01:02:08.724Z,100792.31
2019-03-12T01:04:37.275Z,100792.42
2019-03-12T01:07:05.689Z,100787.05
2019-03-12T01:09:34.121Z,100781.70
2019-03-12T01:12:02.535Z,100789.08
2019-03-12T01:14:30.942Z,100789.19
2019-03-12T01:16:59.323Z,100788.22
2019-03-12T01:19:27.734Z,100786.10
2019-03-12T01:21:56.152Z,100793.02
2019-03-12T01:24:24.555Z,100797.64
2019-03-12T01:26:52.943Z,100800.88
2019-03-12T01:29:21.363Z,100803.98
2019-03-12T01:31:49.757Z,100804.56
2019-03-12T01:34:18.201Z,100814.33
2019-03-12T01:36:46.678Z,100813.37
2019-03-12T01:39:15.261Z,100815.44
2019-03-12T01:41:43.656Z,100814.13
2019-03-12T01:44:12.059Z,100820.58
2019-03-12T01:46:40.464Z,100815.30
2019-03-12T01:49:08.853Z,100818.42
2019-03-12T01:51:37.270Z,100825.70
2019-03-12T01:54:05.654Z,100823.44
2019-03-12T01:56:34.054Z,100828.56
2019-03-12T01:59:02.450Z,100832.98
2019-03-12T02:01:30.852Z,100830.84
2019-03-12T02:03:59.243Z,100829.53
2019-03-12T02:06:27.657Z,100837.18
2019-03-12T02:08:56.063Z,100841.84
2019-03-12T02:11:24.565Z,100830.14
2019-03-12T02:13:52.953Z,100838.38
2019-03-12T02:16:21.340Z,100834.09
2019-03-12T02:18:49.803Z,100827.75
2019-03-12T02:21:18.224Z,100833.00
2019-03-12T02:23:46.711Z,100827.98
2019-03-12T02:26:15.142Z,100829.30
2019-03-12T02:28:43.598Z,100832.51
2019-03-12T02:31:12.056Z,100832.48
2019-03-12T02:33:40.445Z,100825.09
2019-03-12T02:36:08.938Z,100831.65
2019-03-12T02:38:37.333Z,100827.22
2019-03-12T02:41:05.814Z,100825.33
2019-03-12T02:43:34.209Z,100819.32
2019-03-12T02:46:02.583Z,100819.69
2019-03-12T02:48:30.977Z,100818.31
2019-03-12T02:50:59.365Z,100817.98
2019-03-12T02:53:27.772Z,100815.91
2019-03-12T02:55:56.178Z,100821.98
2019-03-12T02:58:24.583Z,100816.97
2019-03-12T03:00:52.967Z,100826.50
2019-03-12T03:03:21.384Z,100818.81
2019-03-12T03:05:51.435Z,100818.81
2019-03-12T03:08:21.485Z,100823.58
2019-03-12T03:10:49.878Z,100815.03
2019-03-12T03:13:18.289Z,100814.37
2019-03-12T03:15:47.511Z,100821.13
2019-03-12T03:18:15.877Z,100821.12
2019-03-12T03:20:44.274Z,100819.70
2019-03-12T03:23:12.648Z,100812.79
2019-03-12T03:25:41.072Z,100809.01
2019-03-12T03:28:09.449Z,100807.55
2019-03-12T03:30:37.960Z,100813.22
2019-03-12T03:33:06.410Z,100811.42
2019-03-12T03:35:34.800Z,100816.56
2019-03-12T03:38:03.243Z,100815.72
2019-03-12T03:40:31.687Z,100821.69
2019-03-12T03:43:00.108Z,100818.98
2019-03-12T03:45:28.571Z,100820.37
2019-03-12T03:47:56.966Z,100819.80
2019-03-12T03:50:25.428Z,100818.80
2019-03-12T03:52:53.813Z,100819.77
2019-03-12T03:55:23.173Z,100814.34
2019-03-12T03:57:51.621Z,100808.95
2019-03-12T04:00:24.209Z,100817.50
2019-03-12T04:02:52.666Z,100808.40
2019-03-12T04:05:21.324Z,100809.18
2019-03-12T04:07:49.709Z,100810.77
2019-03-12T04:10:18.310Z,100807.61
2019-03-12T04:12:46.709Z,100797.96
2019-03-12T04:15:16.591Z,100794.88
2019-03-12T04:17:45.050Z,100791.89
2019-03-12T04:20:15.085Z,100790.97
2019-03-12T04:22:43.630Z,100787.55
2019-03-12T04:28:34.368Z,100785.06
2019-03-12T04:31:02.782Z,100784.72
2019-03-12T04:33:59.514Z,100790.64
2019-03-12T04:36:27.948Z,100781.23
2019-03-12T04:38:56.354Z,100787.80
2019-03-12T04:41:24.761Z,100779.82
2019-03-12T04:43:53.160Z,100735.92
2019-03-12T04:46:21.569Z,100782.66
2019-03-12T04:48:49.963Z,100780.98
2019-03-12T04:51:18.356Z,100777.12
2019-03-12T04:53:46.758Z,100785.77
2019-03-12T04:56:15.151Z,100783.80
2019-03-12T04:58:43.543Z,100785.11
2019-03-12T05:01:11.949Z,100770.76
2019-03-12T05:03:40.415Z,100769.75
2019-03-12T05:06:08.817Z,100773.25
2019-03-12T05:08:37.231Z,100771.50
2019-03-12T05:11:05.642Z,100770.02
2019-03-12T05:13:34.034Z,100770.97
2019-03-12T05:16:02.505Z,100765.09
2019-03-12T05:18:30.900Z,100765.70
2019-03-12T05:20:59.301Z,100762.34
2019-03-12T05:23:27.721Z,100765.88
2019-03-12T05:25:56.119Z,100762.30
2019-03-12T05:28:24.603Z,100750.55
2019-03-12T05:30:52.990Z,100750.69
2019-03-12T05:33:21.394Z,100751.34
2019-03-12T05:35:49.792Z,100738.48
2019-03-12T05:38:18.185Z,100744.25
2019-03-12T05:40:46.594Z,100743.23
2019-03-12T05:43:15.087Z,100748.20
2019-03-12T05:45:43.498Z,100742.90
2019-03-12T05:48:11.917Z,100746.81
2019-03-12T05:50:40.304Z,100735.07
2019-03-12T05:53:13.318Z,100743.27
2019-03-12T05:55:41.743Z,100744.11
2019-03-12T05:58:10.169Z,100741.41
2019-03-12T06:00:38.710Z,100738.52
2019-03-12T06:03:07.873Z,100739.88
2019-03-12T06:05:36.341Z,100736.24
2019-03-12T06:08:04.908Z,100736.29
2019-03-12T06:10:33.337Z,100733.77
2019-03-12T06:13:01.772Z,100740.98
2019-03-12T06:15:30.239Z,100742.89
2019-03-12T06:17:58.639Z,100737.88
2019-03-12T06:20:27.062Z,100740.50
2019-03-12T06:22:55.470Z,100745.37
2019-03-12T06:25:23.891Z,100741.49
2019-03-12T06:27:52.324Z,100733.70
2019-03-12T06:30:21.180Z,100735.02
2019-03-12T06:33:03.257Z,100729.20
2019-03-12T06:35:33.386Z,100722.81
2019-03-12T06:38:03.439Z,100717.41
2019-03-12T06:40:45.684Z,100722.34
2019-03-12T06:43:28.038Z,100723.11
2019-03-12T06:45:58.074Z,100720.92
2019-03-12T06:48:28.136Z,100721.41
2019-03-12T06:51:00.734Z,100718.14
2019-03-12T06:53:33.663Z,100716.71
2019-03-12T06:56:19.602Z,100713.86
2019-03-12T06:58:49.649Z,100712.64
2019-03-12T07:01:19.761Z,100699.43
2019-03-12T07:03:55.559Z,100699.51
2019-03-12T07:06:41.758Z,100700.64
2019-03-12T07:09:24.018Z,100697.38
2019-03-12T07:11:59.946Z,100703.39
2019-03-12T07:14:32.654Z,100695.10
2019-03-12T07:17:05.428Z,100690.12
2019-03-12T07:19:50.700Z,100682.25
2019-03-12T07:22:36.979Z,100684.11
2019-03-12T07:25:16.027Z,100678.50
2019-03-12T07:27:49.054Z,100670.39
2019-03-12T07:30:24.846Z,100667.88
2019-03-12T07:33:06.368Z,100655.88
2019-03-12T07:35:39.127Z,100656.72
2019-03-12T07:38:25.171Z,100654.59
2019-03-12T07:41:01.060Z,100645.55
2019-03-12T07:43:31.152Z,100632.56
2019-03-12T07:46:09.677Z,100619.63
2019-03-12T07:48:51.609Z,100621.08
2019-03-12T07:51:21.650Z,100611.48
2019-03-12T07:54:07.564Z,100606.28
2019-03-12T07:56:43.376Z,100605.58
2019-03-12T07:59:13.418Z,100599.78
2019-03-12T08:01:43.471Z,100605.05
2019-03-12T08:04:25.843Z,100593.94
2019-03-12T08:06:58.942Z,100588.09
2019-03-12T08:09:29.029Z,100585.94
2019-03-12T08:12:01.923Z,100575.57
2019-03-12T08:14:31.921Z,100571.22
2019-03-12T08:17:07.819Z,100568.44
2019-03-12T08:19:43.730Z,100563.97
2019-03-12T08:22:29.949Z,100558.95
2019-03-12T08:25:05.875Z,100561.39
2019-03-12T08:27:51.902Z,100554.99
2019-03-12T08:30:37.109Z,100548.05
2019-03-12T08:33:16.018Z,100530.50
2019-03-12T08:35:48.989Z,100524.16
2019-03-12T08:38:35.208Z,100529.16
2019-03-12T08:41:14.443Z,100519.23
2019-03-12T08:43:44.498Z,100517.92
2019-03-12T08:46:23.239Z,100511.45
2019-03-12T08:49:05.268Z,100503.41
2019-03-12T08:51:35.350Z,100500.04
2019-03-12T08:54:08.702Z,100500.55
2019-03-12T08:56:51.169Z,100498.36
2019-03-12T08:59:33.119Z,100490.28
2019-03-12T09:02:06.147Z,100483.09
2019-03-12T09:04:41.956Z,100489.58
2019-03-12T09:07:17.526Z,100478.47
2019-03-12T09:10:03.770Z,100476.69
2019-03-12T09:12:43.159Z,100475.59
2019-03-12T09:15:16.071Z,100464.29
2019-03-12T09:17:46.202Z,100456.44
2019-03-12T09:20:31.353Z,100444.84
2019-03-12T09:23:07.359Z,100447.80
2019-03-12T09:25:46.541Z,100442.92
2019-03-12T09:28:25.342Z,100445.09
2019-03-12T09:31:01.077Z,100444.74
2019-03-12T09:33:33.827Z,100434.25
2019-03-12T09:36:03.948Z,100422.86
2019-03-12T09:38:35.608Z,100415.81
2019-03-12T09:41:20.675Z,100423.50
2019-03-12T09:43:50.777Z,100414.84
2019-03-12T09:46:33.073Z,100408.96
2019-03-12T09:49:19.698Z,100398.47
2019-03-12T09:52:01.555Z,100385.38
2019-03-12T09:54:31.594Z,100370.23
2019-03-12T09:57:19.515Z,100365.92
2019-03-12T09:59:55.180Z,100372.73
2019-03-12T10:02:40.358Z,100368.16
2019-03-12T10:05:19.527Z,100350.87
2019-03-12T10:08:01.583Z,100363.09
2019-03-12T10:10:34.569Z,100348.63
2019-03-12T10:13:10.601Z,100347.44
2019-03-12T10:15:49.427Z,100349.11
2019-03-12T10:18:25.066Z,100339.73
2019-03-12T10:21:00.604Z,100335.73
2019-03-12T10:23:33.346Z,100339.21
2019-03-12T10:26:12.214Z,100339.45
2019-03-12T10:28:51.292Z,100250.75
2019-03-12T10:31:37.546Z,100319.05
2019-03-12T10:34:07.603Z,100314.17
2019-03-12T10:36:37.649Z,100305.63
2019-03-12T10:39:59.450Z,100296.14
2019-03-12T10:42:35.268Z,100294.29
2019-03-12T10:45:06.182Z,100289.21
2019-03-12T10:47:45.261Z,100283.07
2019-03-12T10:50:14.253Z,100290.49
2019-03-12T10:52:42.688Z,100275.93
2019-03-12T10:55:13.631Z,100269.05
2019-03-12T10:57:41.475Z,100261.34
2019-03-12T11:00:15.556Z,100260.34
2019-03-12T11:02:44.020Z,100256.52
2019-03-12T11:05:12.566Z,100252.20
2019-03-12T11:07:40.992Z,100259.14
2019-03-12T11:10:17.390Z,100252.83
2019-03-12T11:12:45.801Z,100243.67
2019-03-12T11:15:15.452Z,100236.52
2019-03-12T11:17:49.336Z,100227.44
2019-03-12T11:20:19.934Z,100232.89
2019-03-12T11:22:48.355Z,100224.92
2019-03-12T11:25:26.399Z,100206.25
2019-03-12T11:27:46.876Z,100209.85
2019-03-12T11:30:19.119Z,100205.30
2019-03-12T11:32:47.515Z,100196.77
2019-03-12T11:35:15.917Z,100183.74
2019-03-12T11:37:44.381Z,100171.94
2019-03-12T11:40:25.460Z,100180.18
2019-03-12T11:42:54.339Z,100179.78
2019-03-12T11:45:35.473Z,100165.25
2019-03-12T11:47:53.132Z,100160.76
2019-03-12T11:50:23.175Z,100155.63
2019-03-12T11:52:55.698Z,100149.10
2019-03-12T11:55:21.854Z,100145.45
2019-03-12T11:57:50.415Z,100126.83
2019-03-12T12:00:35.569Z,100121.97
2019-03-12T12:03:04.133Z,100116.23
2019-03-12T12:05:32.510Z,100110.80
2019-03-12T12:08:00.914Z,100109.51
2019-03-12T12:10:29.454Z,100106.53
2019-03-12T12:12:57.926Z,100090.16
2019-03-12T12:15:27.504Z,100081.11
2019-03-12T12:17:55.902Z,100066.27
2019-03-12T12:20:29.407Z,100061.83
2019-03-12T12:22:54.479Z,100037.94
2019-03-12T12:25:22.874Z,100034.39
2019-03-12T12:27:51.594Z,100027.13
2019-03-12T12:30:20.932Z,100014.06
2019-03-12T12:32:49.331Z,100011.05
2019-03-12T12:35:17.801Z,99998.90
2019-03-12T12:37:46.270Z,100001.86
2019-03-12T12:40:19.655Z,99990.84
2019-03-12T12:42:48.112Z,99985.11
2019-03-12T12:45:28.687Z,99966.81
2019-03-12T12:47:57.163Z,99968.70
2019-03-12T12:50:25.690Z,99927.05
2019-03-12T12:52:54.154Z,99967.49
2019-03-12T12:55:22.618Z,99952.27
2019-03-12T12:57:51.015Z,99940.69
2019-03-12T13:00:25.092Z,99934.17
2019-03-12T13:02:53.505Z,99926.28
2019-03-12T13:05:22.152Z,99912.83
2019-03-12T13:07:50.680Z,99915.84
2019-03-12T13:10:35.083Z,99910.77
2019-03-12T13:13:03.482Z,99898.36
2019-03-12T13:15:31.893Z,99898.38
2019-03-12T13:18:00.306Z,99888.52
2019-03-12T13:20:28.706Z,99887.97
2019-03-12T13:22:57.106Z,99877.25
2019-03-12T13:25:25.676Z,99866.81
2019-03-12T13:27:54.146Z,99855.42
2019-03-12T13:30:23.888Z,99850.23
2019-03-12T13:32:52.289Z,99841.30
2019-03-12T13:35:21.122Z,99843.33
2019-03-12T13:37:50.070Z,99833.45
2019-03-12T13:40:22.635Z,99827.38
2019-03-12T13:42:51.897Z,99819.77
2019-03-12T13:45:28.164Z,99808.16
2019-03-12T13:47:57.053Z,99797.45
2019-03-12T13:50:25.855Z,99779.09
2019-03-12T13:52:54.553Z,99781.92
2019-03-12T13:55:23.525Z,99765.19
2019-03-12T13:57:52.011Z,99760.88
2019-03-12T14:00:28.219Z,99764.61
2019-03-12T14:02:56.827Z,99758.45
2019-03-12T14:05:25.214Z,99757.45
2019-03-12T14:07:53.708Z,99748.87
2019-03-12T14:10:26.953Z,99742.73
2019-03-12T14:12:56.703Z,99732.86
2019-03-12T14:15:27.814Z,99734.44
2019-03-12T14:17:56.584Z,99726.21
2019-03-12T14:20:39.621Z,99673.27
2019-03-12T14:23:08.585Z,99706.81
2019-03-12T14:25:37.310Z,99697.95
2019-03-12T14:28:05.994Z,99694.98
2019-03-12T14:30:34.665Z,99680.86
2019-03-12T14:33:03.331Z,99667.27
2019-03-12T14:35:31.781Z,99663.84
2019-03-12T14:38:00.195Z,99648.01
2019-03-12T14:40:28.665Z,99638.38
2019-03-12T14:42:57.143Z,99634.09
2019-03-12T14:45:29.588Z,99613.66
2019-03-12T14:47:58.270Z,99598.70
2019-03-12T14:50:28.960Z,99598.91
2019-03-12T14:53:07.699Z,99590.55
2019-03-12T14:55:36.640Z,99580.99
2019-03-12T14:58:05.394Z,99574.79
2019-03-12T15:00:33.887Z,99567.09
2019-03-12T15:03:02.361Z,99553.05
2019-03-12T15:05:30.949Z,99556.55
2019-03-12T15:07:59.702Z,99550.94
2019-03-12T15:10:28.132Z,99548.40
2019-03-12T15:12:56.536Z,99542.33
2019-03-12T15:15:25.264Z,99538.97
2019-03-12T15:17:53.639Z,99531.55
2019-03-12T15:20:22.063Z,99523.33
2019-03-12T15:22:50.614Z,99518.38
2019-03-12T15:25:19.046Z,99510.77
2019-03-12T15:27:47.515Z,99510.16
2019-03-12T15:30:24.405Z,99502.45
2019-03-12T15:33:02.451Z,99508.61
2019-03-12T15:35:31.746Z,99494.70
2019-03-12T15:38:00.218Z,99486.44
2019-03-12T15:40:28.693Z,99470.58
2019-03-12T15:42:57.288Z,99461.79
2019-03-12T15:45:25.717Z,99459.05
2019-03-12T15:47:54.185Z,99455.86
2019-03-12T15:50:22.627Z,99447.28
2019-03-12T15:52:51.073Z,99440.00
2019-03-12T15:55:19.565Z,99431.33
2019-03-12T15:57:47.965Z,99437.87
2019-03-12T16:00:17.930Z,99430.00
2019-03-12T16:02:46.353Z,99420.88
2019-03-12T16:05:14.944Z,99420.67
2019-03-12T16:07:43.403Z,99408.47
2019-03-12T16:10:20.901Z,99414.87
2019-03-12T16:12:49.428Z,99403.99
2019-03-12T16:15:18.693Z,99402.98
2019-03-12T16:17:47.123Z,99402.66
2019-03-12T16:20:22.795Z,99388.52
2019-03-12T16:22:51.232Z,99387.27
2019-03-12T16:25:19.702Z,99380.91
2019-03-12T16:27:48.174Z,99365.88
2019-03-12T16:30:18.920Z,99359.88
2019-03-12T16:32:47.338Z,99359.88
2019-03-12T16:35:16.093Z,99353.11
2019-03-12T16:37:44.610Z,99351.16
2019-03-12T16:40:17.222Z,99340.20
2019-03-12T16:42:45.795Z,99337.23
2019-03-12T16:45:18.459Z,99329.98
2019-03-12T16:47:46.886Z,99316.80
2019-03-12T16:50:16.464Z,99315.09
2019-03-12T16:52:45.037Z,99298.56
2019-03-12T16:55:18.058Z,99294.73
2019-03-12T16:57:46.543Z,99277.60
2019-03-12T17:00:19.979Z,99279.91
2019-03-12T17:02:48.416Z,99279.38
2019-03-12T17:05:16.917Z,99272.70
2019-03-12T17:07:45.394Z,99276.36
2019-03-12T17:10:18.551Z,99261.13
2019-03-12T17:12:47.029Z,99247.36
2019-03-12T17:15:20.865Z,99247.36
2019-03-12T17:17:49.423Z,99233.37
2019-03-12T17:20:18.100Z,99237.81
2019-03-12T17:22:46.629Z,99215.88
2019-03-12T17:25:15.064Z,99215.88
2019-03-12T17:27:43.631Z,99218.22
2019-03-12T17:30:23.100Z,99207.94
2019-03-12T17:32:51.585Z,99192.56
2019-03-12T17:35:37.516Z,99192.56
2019-03-12T17:38:05.981Z,99191.84
2019-03-12T17:40:34.412Z,99187.50
2019-03-12T17:43:02.894Z,99174.33
2019-03-12T17:45:31.310Z,99174.33
2019-03-12T17:47:59.755Z,99167.20
2019-03-12T17:50:28.181Z,99153.13
2019-03-12T17:52:56.575Z,99153.13
2019-03-12T17:55:24.984Z,99155.20
2019-03-12T17:57:53.451Z,99149.38
2019-03-12T18:00:27.793Z,99142.96
2019-03-12T18:02:54.656Z,99137.23
2019-03-12T18:05:23.266Z,99134.48
2019-03-12T18:07:51.747Z,99136.31
2019-03-12T18:10:20.336Z,99138.45
2019-03-12T18:12:48.731Z,99127.05
2019-03-12T18:15:21.214Z,99124.78
2019-03-12T18:17:49.766Z,99128.06
2019-03-12T18:20:24.545Z,99137.83
2019-03-12T18:22:52.929Z,99137.63
2019-03-12T18:25:30.278Z,99132.25
2019-03-12T18:27:58.858Z,99129.61
2019-03-12T18:30:27.335Z,99121.28
2019-03-12T18:32:55.725Z,99107.69
2019-03-12T18:35:24.189Z,99106.12
2019-03-12T18:37:52.599Z,99106.55
2019-03-12T18:40:25.557Z,99100.52
2019-03-12T18:42:54.119Z,99087.86
2019-03-12T18:45:31.315Z,99067.14
2019-03-12T18:47:59.727Z,99067.14
2019-03-12T18:50:28.248Z,99057.25
2019-03-12T18:52:56.782Z,99065.19
2019-03-12T18:55:31.139Z,99048.37
2019-03-12T18:57:59.577Z,99048.37
2019-03-12T19:00:28.146Z,99048.69
2019-03-12T19:02:56.615Z,99046.55
2019-03-12T19:05:28.036Z,99041.09
2019-03-12T19:07:55.185Z,99041.09
2019-03-12T19:10:23.741Z,99044.37
2019-03-12T19:12:52.366Z,99040.09
2019-03-12T19:15:20.898Z,99033.91
2019-03-12T19:17:49.404Z,99041.09
2019-03-12T19:20:18.739Z,99032.66
2019-03-12T19:22:47.215Z,99023.13
2019-03-12T19:25:18.061Z,99018.53
2019-03-12T19:27:58.867Z,99002.37
2019-03-12T19:30:18.226Z,98998.20
2019-03-12T19:32:48.718Z,98989.75
2019-03-12T19:35:20.393Z,98979.77
2019-03-12T19:37:49.019Z,98987.11
2019-03-12T19:40:20.468Z,98988.02
2019-03-12T19:42:48.860Z,98987.63
2019-03-12T19:45:17.364Z,98969.73
2019-03-12T19:47:45.829Z,98965.26
2019-03-12T19:50:19.564Z,98951.08
2019-03-12T19:52:48.171Z,98953.23
2019-03-12T19:55:28.218Z,98952.59
2019-03-12T19:57:56.682Z,98931.11
2019-03-12T20:00:26.810Z,98925.13
2019-03-12T20:02:55.669Z,98925.13
2019-03-12T20:05:24.325Z,98922.87
2019-03-12T20:07:52.932Z,98929.98
2019-03-12T20:10:36.498Z,98896.73
2019-03-12T20:13:17.032Z,98887.08
2019-03-12T20:16:08.170Z,98886.93
2019-03-12T20:19:13.133Z,98867.09
2019-03-12T20:22:04.034Z,98865.37
2019-03-12T20:24:52.120Z,98870.16
2019-03-12T20:27:32.570Z,98856.58
2019-03-12T20:30:04.041Z,98862.88
2019-03-12T20:32:50.086Z,98845.16
2019-03-12T20:35:52.207Z,98838.54
2019-03-12T20:38:41.913Z,98823.80
2019-03-12T20:41:32.690Z,98820.22
2019-03-12T20:44:06.947Z,98809.67
2019-03-12T20:46:59.390Z,98796.95
2019-03-12T20:50:04.564Z,98800.59
2019-03-12T20:52:51.057Z,98782.75
2019-03-12T20:55:51.330Z,98788.72
2019-03-12T20:58:56.107Z,98778.64
2019-03-12T21:04:00.772Z,98769.41
2019-03-12T21:07:04.203Z,98765.14
2019-03-12T21:10:08.524Z,98751.78
2019-03-12T21:12:45.585Z,98755.33
2019-03-12T21:15:36.384Z,98749.48
2019-03-12T21:18:28.671Z,98754.68
2019-03-12T21:21:23.013Z,98749.98
2019-03-12T21:24:01.402Z,98734.03
2019-03-12T21:26:45.062Z,98731.06
2019-03-12T21:29:42.232Z,98727.08
2019-03-12T21:32:11.618Z,98717.59
2019-03-12T21:34:40.104Z,98721.55
2019-03-12T21:37:08.642Z,98708.07
2019-03-12T21:39:37.208Z,98695.59
2019-03-12T21:42:06.360Z,98687.02
2019-03-12T21:44:35.053Z,98678.59
2019-03-12T21:47:03.714Z,98674.41
2019-03-12T21:49:32.230Z,98665.23
2019-03-12T21:52:00.762Z,98657.63
2019-03-12T21:54:29.304Z,98659.88
2019-03-12T21:56:57.711Z,98659.88
2019-03-12T21:59:26.184Z,98664.23
2019-03-12T22:01:54.622Z,98662.41
2019-03-12T22:04:23.066Z,98671.27
2019-03-12T22:06:51.561Z,98666.72
2019-03-12T22:09:19.976Z,98665.70
2019-03-12T22:11:48.472Z,98670.36
2019-03-12T22:14:16.866Z,98687.12
2019-03-12T22:16:46.584Z,98685.20
2019-03-12T22:19:17.951Z,98674.95
2019-03-12T22:21:57.133Z,98664.05
2019-03-12T22:24:25.615Z,98664.05
2019-03-12T22:26:54.183Z,98679.55
2019-03-12T22:29:22.687Z,98671.84
2019-03-12T22:31:51.109Z,98668.60
2019-03-12T22:34:19.542Z,98662.41
2019-03-12T22:36:47.951Z,98667.91
2019-03-12T22:39:16.412Z,98669.53
2019-03-12T22:41:45.039Z,98666.45
2019-03-12T22:44:13.551Z,98670.41
2019-03-12T22:46:41.966Z,98671.82
2019-03-12T22:49:10.381Z,98679.16
2019-03-12T22:51:38.776Z,98673.28
2019-03-12T22:54:07.162Z,98678.77
2019-03-12T22:56:35.669Z,98680.33
2019-03-12T22:59:04.049Z,98676.26
2019-03-12T23:01:32.611Z,98680.83
2019-03-12T23:04:01.076Z,98699.23
2019-03-12T23:06:29.538Z,98706.23
2019-03-12T23:08:58.048Z,98700.63
2019-03-12T23:11:26.507Z,98722.70
2019-03-12T23:13:54.985Z,98722.70
2019-03-12T23:16:23.522Z,98714.45
2019-03-12T23:18:52.075Z,98715.64
2019-03-12T23:21:20.433Z,98709.70
2019-03-12T23:23:48.850Z,98719.74
2019-03-12T23:26:17.300Z,98717.80
2019-03-12T23:28:45.850Z,98726.02
2019-03-12T23:31:14.329Z,98733.45
2019-03-12T23:33:45.202Z,98738.74
2019-03-12T23:36:13.677Z,98757.59
2019-03-12T23:38:42.351Z,98744.00
2019-03-12T23:41:10.745Z,98744.00
2019-03-12T23:43:39.233Z,98746.90
2019-03-12T23:46:07.699Z,98754.95
2019-03-12T23:48:36.127Z,98775.23
2019-03-12T23:51:04.597Z,98790.97
2019-03-12T23:53:33.001Z,98830.94
2019-03-12T23:56:01.533Z,98830.94
2019-03-12T23:58:31.224Z,98838.81
